Details From UHMM - Magadan Sokol
To UEEE - Yakutsk
Flight Number -
Tags Generated
Created
Modified
Stats Distance 621 nm / 1,149 km
Max Altitude 0 ft / 0 m
Waypoints 3
Social Downloads 1
Likes 0
Share VATSIM

Download

Looking for another format? Having issues loading an existing format? Contact us
Advertisement - Login to hide

Notes

Generated

Route

UHMM UTS UEEE

ID Type Via Altitude Latitude Longitude Leg Dist Tot Dist Heading (true) Name
O UHMM APT - 0 ft / 0 m 59.91186˚ 150.68961˚ - 0 nm - -
UTS VOR - 0 ft / 0 m 62.09167˚ 129.78319˚ 619 nm 619 nm 291° / 273° YAKUTSK VOR-DME
O UEEE APT - 0 ft / 0 m 62.08188˚ 129.75652˚ 0 nm 620 nm 232° / 232° -

Altitude Profile

Advertisement - Login to hide

Weather


0- 5 10 15 20 25 30 35+ Temperature / ° C

Clouds and Precipitation
Forecast for 2017-12-13 06:00 UTC. Updated 26 minutes ago

Ground ~20,000 ft ~40,000 ft Winds

UHMM

Details ICAO UHMM (GDX)
Name Magadan Sokol
Region Russia
Timezone Asia/Magadan (UTC+11.0)
Stats Elevation 574 ft / 175 m (AMSL)
Location 59.910989° 150.720439°
Runways 1
Magnetic Variation 10.990° W

METAR

UHMM 130130Z 32001MPS 9999 NSC M15/M24 Q1018 R10/99//35 NOSIG RMK QFE749

Decode

TAF

TAF UHMM 122246Z 1300/1406 35007G14MPS 9999 DRSN SCT030 BKN070 TEMPO 1300/1310 3100 -SN BLSN VV011

Decode

Departure Runways

ID Width Length Bearing (true) Bearing (mag) Surface Threshold Offset Overrun Length
10 194 ft / 59 m 11,299 ft / 3,444 m 93.20° 104.19° Concrete 0 ft / 0 m 1,975 ft / 602 m
28 194 ft / 59 m 11,299 ft / 3,444 m 273.26° 284.25° Concrete 0 ft / 0 m 220 ft / 67 m

UEEE

Details ICAO UEEE (YKS)
Name Yakutsk
Region Russia
Timezone Asia/Yakutsk (UTC+9.0)
Stats Elevation 325 ft / 99 m (AMSL)
Location 62.093249° 129.770678°
Runways 2
Magnetic Variation 15.673° W

METAR

UEEE 130130Z 03001MPS 0700 0600NE R23L/0700N FG NSC M43/M48 Q1039 R23L/490150 NOSIG RMK QFE771

Decode

TAF

TAF UEEE 122300Z 1300/1406 VRB01MPS 0300 FG VV002 TXM39/1305Z TNM43/1224Z TEMPO 1303/1312 1500 BR NSC

Decode

Destination Runways

ID Width Length Bearing (true) Bearing (mag) Surface Threshold Offset Overrun Length
05L 161 ft / 49 m 8,171 ft / 2,491 m 29.51° 45.18° Concrete 0 ft / 0 m 154 ft / 47 m
05R 197 ft / 60 m 11,120 ft / 3,389 m 36.88° 52.55° Asphalt 0 ft / 0 m 226 ft / 69 m
23L 197 ft / 60 m 11,120 ft / 3,389 m 216.92° 232.59° Asphalt 0 ft / 0 m 226 ft / 69 m
23R 161 ft / 49 m 8,171 ft / 2,491 m 209.53° 225.20° Concrete 3,399 ft / 1,036 m 164 ft / 50 m

Approach Navaids

Runway Type Ident Frequency Range Bearing (true) Bearing (mag) Slope Elevation
23L Localiser IMF 111.70 MHz 18 nm / 33 km 216.60° 232.28° - 325 ft / 99 m (AMSL)
23L Glidescope IMF 111.70 MHz 10 nm / 19 km 216.90° 232.57° 3.00° 325 ft / 99 m (AMSL)

Popular Alternatives